首页
METAR-TAF:

METAR-TAF

机场 :

曼彻斯特机场

曼彻斯特, 英格兰

纬度: 53-21N, 经度: 002-17W, 海拔: 69米

当前天气观测

该预报发布于37分钟前的22:50 UTC
风速7节,风向
温度 11°C
湿度 71%
气压 1010 hPa
能见度10公里或以上
少量云层高于2500英尺
多云层高于3100英尺

METAR: EGCC 032250Z AUTO 36007KT 9999 FEW025 BKN031 11/06 Q1010 NOSIG

时间: 00:27 (23:27 UTC)

预报

该预报发布于6小时和29分钟前的16:58 UTC
预报有效从03日的 18点(UTC)到 04日的 24点(UTC)
风速12节,风向东北
能见度10公里或以上
散云层高于2000英尺
几率 30% :
短暂存在
从 03日的 18点(UTC)到 03日的 24点(UTC)
能見度: 8000
小阵雨
成为
从 03日的 21点(UTC)到 03日的 24点(UTC)
风速7节,风向西北
几率 40% :
短暂存在
从 04日的 08点(UTC)到 04日的 24点(UTC)
能見度: 7000
阵雨

TAF: EGCC 031658Z 0318/0424 04012KT 9999 SCT020 PROB30 TEMPO 0318/0324 8000 -SHRA BECMG 0321/0324 32007KT PROB40 TEMPO 0408/0424 7000 SHRA

超过4000个机场的气象观测和天气预报(METAR&TAF报告)。

可查询的气象台以黄色和红色小点在地图上表示。

将鼠标移到小点上方,可查看气象台名称。

然后点击查看天气观测和预报。

如需切换地图:点击带黑十字的绿色按钮放大地图;点击带横线的绿色按钮缩小地图;或者点击绿色箭头查看邻近地区的地图。


METAR-TAF: